Time;durP1;ratioP1;P1;durP2;ratioP2;P2;SDS_P1;SDS_P2;PMS_P1;PMS_P2;Temp;Humidity;BMP_temperature;BMP_pressure;BME280_temperature;BME280_humidity;BME280_pressure;Samples;Min_cycle;Max_cycle;Signal;HPM_P1;HPM_P2
2022/02/09 00:05:57;;;;;;;;;50.75;41.75;;;;;;;;5038791;28;51270;-46
2022/02/09 00:08:41;;;;;;;;;52.00;39.00;;;;;;;;5052969;28;51060;-45
2022/02/09 00:11:29;;;;;;;;;50.50;40.75;;;;;;;;5048122;28;51071;-47
2022/02/09 00:14:27;;;;;;;;;49.25;38.25;;;;;;;;5051525;28;51063;-46
2022/02/09 00:17:36;;;;;;;;;56.00;40.75;;;;;;;;5048818;28;51171;-48
2022/02/09 00:20:51;;;;;;;;;55.25;40.75;;;;;;;;5054201;28;51080;-46
2022/02/09 00:23:45;;;;;;;;;56.00;39.25;;;;;;;;5059515;28;51098;-42
2022/02/09 00:59:41;;;;;;;;;48.25;38.50;;;;;;;;5044426;28;51498;-45
2022/02/09 01:56:32;;;;;;;;;52.25;39.75;;;;;;;;5051974;28;51083;-45
2022/02/09 01:59:16;;;;;;;;;51.00;38.00;;;;;;;;5042315;28;51456;-46
2022/02/09 02:02:01;;;;;;;;;54.00;39.75;;;;;;;;5056715;28;52664;-44
2022/02/09 02:04:47;;;;;;;;;50.75;40.50;;;;;;;;5058903;28;51156;-43
2022/02/09 02:07:49;;;;;;;;;47.00;38.50;;;;;;;;5043894;28;51056;-48
2022/02/09 02:13:49;;;;;;;;;54.25;38.50;;;;;;;;5044085;28;51206;-44
2022/02/09 02:16:39;;;;;;;;;50.50;40.00;;;;;;;;5042357;28;51541;-46
2022/02/09 02:19:38;;;;;;;;;48.75;39.75;;;;;;;;5041081;28;51400;-44
2022/02/09 02:40:11;;;;;;;;;48.25;38.00;;;;;;;;5050364;28;51078;-47
2022/02/09 02:59:16;;;;;;;;;49.00;38.00;;;;;;;;5045299;28;51488;-51
2022/02/09 03:10:58;;;;;;;;;52.25;39.75;;;;;;;;5041031;28;51135;-46
2022/02/09 03:13:49;;;;;;;;;50.50;39.50;;;;;;;;5040484;28;51003;-43
2022/02/09 03:16:42;;;;;;;;;52.25;39.00;;;;;;;;5044084;28;51066;-43
2022/02/09 03:22:20;;;;;;;;;52.25;39.25;;;;;;;;5039983;28;51140;-44
2022/02/09 03:43:47;;;;;;;;;53.50;38.25;;;;;;;;5040758;28;51231;-47
2022/02/09 03:54:58;;;;;;;;;53.00;39.25;;;;;;;;5054287;28;50992;-42
2022/02/09 03:57:45;;;;;;;;;47.25;39.00;;;;;;;;5041996;28;51150;-41
2022/02/09 04:00:34;;;;;;;;;52.25;36.50;;;;;;;;5053789;28;51153;-42
2022/02/09 04:03:21;;;;;;;;;50.00;38.75;;;;;;;;5041931;28;51139;-44
2022/02/09 04:06:05;;;;;;;;;52.75;42.25;;;;;;;;5040318;28;51101;-44
2022/02/09 04:08:56;;;;;;;;;51.75;40.00;;;;;;;;5041800;28;51405;-46
2022/02/09 04:14:40;;;;;;;;;50.50;38.50;;;;;;;;5058170;28;51800;-44
2022/02/09 04:17:34;;;;;;;;;54.25;40.75;;;;;;;;5051104;28;51141;-48
2022/02/09 04:47:25;;;;;;;;;64.75;46.50;;;;;;;;5050603;28;51147;-46
2022/02/09 04:50:16;;;;;;;;;64.50;47.25;;;;;;;;5040671;28;51148;-45
2022/02/09 04:56:01;;;;;;;;;60.75;44.50;;;;;;;;5051572;28;51102;-49
2022/02/09 04:59:04;;;;;;;;;57.00;45.25;;;;;;;;5044921;28;50956;-43
2022/02/09 05:02:30;;;;;;;;;60.75;45.50;;;;;;;;5043204;28;51512;-42
2022/02/09 05:26:02;;;;;;;;;66.50;51.75;;;;;;;;5050206;28;51088;-48
2022/02/09 05:28:47;;;;;;;;;71.50;54.00;;;;;;;;5042474;28;51634;-46
2022/02/09 05:31:31;;;;;;;;;69.50;55.00;;;;;;;;5043648;28;51037;-45
2022/02/09 05:34:16;;;;;;;;;80.25;63.50;;;;;;;;5044238;28;51757;-43
2022/02/09 05:37:04;;;;;;;;;75.00;61.50;;;;;;;;5041802;28;51167;-43
2022/02/09 05:39:48;;;;;;;;;76.75;58.75;;;;;;;;5056766;28;51058;-47
2022/02/09 05:42:33;;;;;;;;;78.00;58.75;;;;;;;;5044444;28;52778;-46
2022/02/09 05:45:20;;;;;;;;;88.25;64.50;;;;;;;;5048321;28;51154;-42
2022/02/09 05:59:27;;;;;;;;;71.75;53.75;;;;;;;;5043145;28;51566;-44
2022/02/09 06:02:11;;;;;;;;;74.00;53.25;;;;;;;;5042393;28;51154;-50
2022/02/09 06:04:56;;;;;;;;;74.75;60.50;;;;;;;;5041370;28;51155;-47
2022/02/09 06:07:41;;;;;;;;;71.75;55.75;;;;;;;;5040519;28;51383;-47
2022/02/09 06:10:30;;;;;;;;;74.50;57.00;;;;;;;;5040779;28;51091;-48
2022/02/09 06:13:28;;;;;;;;;70.50;53.25;;;;;;;;5040825;28;51526;-47
2022/02/09 06:22:21;;;;;;;;;74.25;60.25;;;;;;;;5060400;28;51055;-49
2022/02/09 06:25:05;;;;;;;;;71.50;56.25;;;;;;;;5044111;28;51126;-47
2022/02/09 06:27:50;;;;;;;;;70.75;56.50;;;;;;;;5040299;28;51185;-47
2022/02/09 06:30:36;;;;;;;;;76.00;61.00;;;;;;;;5040845;28;51125;-47
2022/02/09 06:33:21;;;;;;;;;76.75;63.75;;;;;;;;5059494;28;51149;-48
2022/02/09 06:36:08;;;;;;;;;74.75;57.75;;;;;;;;5045175;28;51201;-47
2022/02/09 06:38:52;;;;;;;;;75.75;57.25;;;;;;;;5040139;28;51526;-46
2022/02/09 06:41:37;;;;;;;;;77.50;64.75;;;;;;;;5040232;28;51306;-47
2022/02/09 06:44:24;;;;;;;;;120.25;101.50;;;;;;;;5039910;28;50983;-47
2022/02/09 06:47:09;;;;;;;;;172.50;142.75;;;;;;;;5039790;28;51849;-47
2022/02/09 06:50:03;;;;;;;;;141.25;119.00;;;;;;;;5039850;28;51515;-47
2022/02/09 06:52:58;;;;;;;;;111.50;98.75;;;;;;;;5055981;28;51118;-47
2022/02/09 06:55:54;;;;;;;;;91.75;78.00;;;;;;;;5052742;28;51417;-48
2022/02/09 06:58:55;;;;;;;;;80.50;71.50;;;;;;;;5044807;28;52138;-47
2022/02/09 07:01:39;;;;;;;;;97.25;84.25;;;;;;;;5039873;28;51111;-49
2022/02/09 07:04:24;;;;;;;;;109.25;90.50;;;;;;;;5039598;28;51127;-47
2022/02/09 07:07:08;;;;;;;;;101.25;82.50;;;;;;;;5040016;28;51020;-47
2022/02/09 07:09:53;;;;;;;;;107.25;93.50;;;;;;;;5046129;28;51056;-47
2022/02/09 07:12:41;;;;;;;;;98.50;85.50;;;;;;;;5056312;28;51045;-47
2022/02/09 07:15:30;;;;;;;;;97.00;88.00;;;;;;;;5039921;28;51439;-51
2022/02/09 07:18:15;;;;;;;;;104.00;91.75;;;;;;;;5039289;28;51222;-49
2022/02/09 07:21:05;;;;;;;;;97.25;90.25;;;;;;;;5040102;28;51500;-48
2022/02/09 07:23:52;;;;;;;;;109.75;98.50;;;;;;;;5039342;28;51019;-46
2022/02/09 07:29:30;;;;;;;;;98.50;87.75;;;;;;;;5039001;28;51232;-49
2022/02/09 07:32:15;;;;;;;;;95.50;84.50;;;;;;;;5057161;28;50995;-47
2022/02/09 07:34:59;;;;;;;;;93.00;79.50;;;;;;;;5042999;28;51380;-47
2022/02/09 07:37:44;;;;;;;;;94.50;81.25;;;;;;;;5048947;28;51182;-50
2022/02/09 07:40:28;;;;;;;;;91.25;79.25;;;;;;;;5043323;28;51118;-47
2022/02/09 07:43:24;;;;;;;;;89.00;78.00;;;;;;;;5039732;28;51144;-49
2022/02/09 07:49:10;;;;;;;;;80.50;71.75;;;;;;;;5041882;28;51486;-48
2022/02/09 07:52:06;;;;;;;;;76.25;66.25;;;;;;;;5041611;28;51164;-50
2022/02/09 07:54:51;;;;;;;;;84.50;67.25;;;;;;;;5038367;28;51227;-50
2022/02/09 07:57:35;;;;;;;;;71.75;60.25;;;;;;;;5056638;28;51192;-49
2022/02/09 08:00:20;;;;;;;;;75.25;65.00;;;;;;;;5058479;28;51163;-47
2022/02/09 08:03:05;;;;;;;;;74.50;59.50;;;;;;;;5057202;28;51205;-47
2022/02/09 08:05:49;;;;;;;;;74.25;61.50;;;;;;;;5062402;28;51230;-49
2022/02/09 08:08:34;;;;;;;;;78.25;61.25;;;;;;;;5051621;28;51091;-49
2022/02/09 08:11:24;;;;;;;;;73.50;61.00;;;;;;;;5037853;28;51103;-51
2022/02/09 08:21:17;;;;;;;;;77.25;69.00;;;;;;;;5038492;28;51093;-47
2022/02/09 08:29:29;;;;;;;;;79.25;63.75;;;;;;;;5058568;28;51130;-46
2022/02/09 08:35:10;;;;;;;;;71.50;60.00;;;;;;;;5038199;28;51115;-49
2022/02/09 08:37:57;;;;;;;;;77.00;65.25;;;;;;;;5040972;28;51042;-48
2022/02/09 08:40:41;;;;;;;;;75.00;65.25;;;;;;;;5040402;28;51382;-47
2022/02/09 08:43:26;;;;;;;;;78.50;68.75;;;;;;;;5051695;28;51124;-47
2022/02/09 08:46:10;;;;;;;;;75.25;63.75;;;;;;;;5050957;28;51161;-47
2022/02/09 08:48:55;;;;;;;;;77.75;67.50;;;;;;;;5048374;28;51171;-47
2022/02/09 08:51:42;;;;;;;;;79.75;68.00;;;;;;;;5051689;28;51450;-48
2022/02/09 08:54:27;;;;;;;;;73.25;63.25;;;;;;;;5041771;28;51151;-50
2022/02/09 08:57:11;;;;;;;;;81.25;66.00;;;;;;;;5042057;28;51209;-48
2022/02/09 08:59:57;;;;;;;;;70.75;56.50;;;;;;;;5060790;28;51141;-50
2022/02/09 09:02:46;;;;;;;;;71.00;52.50;;;;;;;;5062115;28;51159;-46
2022/02/09 09:05:42;;;;;;;;;66.25;49.75;;;;;;;;5054168;28;51495;-47
2022/02/09 09:08:58;;;;;;;;;69.75;51.00;;;;;;;;5041478;28;51220;-51
2022/02/09 09:14:40;;;;;;;;;58.50;47.50;;;;;;;;5043697;28;51159;-51
2022/02/09 10:04:19;;;;;;;;;52.75;41.00;;;;;;;;5040347;28;51600;-47
2022/02/09 10:34:28;;;;;;;;;46.25;36.75;;;;;;;;5039766;28;51032;-47
2022/02/09 10:37:13;;;;;;;;;49.75;38.50;;;;;;;;5040441;28;51118;-47
2022/02/09 10:40:02;;;;;;;;;49.00;37.00;;;;;;;;5040025;28;51566;-50
2022/02/09 10:42:49;;;;;;;;;49.25;36.25;;;;;;;;5039495;28;51217;-47
2022/02/09 10:45:36;;;;;;;;;49.25;37.00;;;;;;;;5038807;28;51167;-47
2022/02/09 10:48:30;;;;;;;;;47.75;36.75;;;;;;;;5051465;28;51051;-47
2022/02/09 10:51:22;;;;;;;;;49.00;38.25;;;;;;;;5061812;27;51033;-48
2022/02/09 10:54:08;;;;;;;;;47.75;37.00;;;;;;;;5051505;28;51121;-46
2022/02/09 10:56:57;;;;;;;;;48.00;34.00;;;;;;;;5049371;28;51071;-47
2022/02/09 10:59:46;;;;;;;;;44.25;35.75;;;;;;;;5044098;28;51060;-46
2022/02/09 11:02:30;;;;;;;;;50.00;34.75;;;;;;;;5039571;28;51101;-49
2022/02/09 11:05:16;;;;;;;;;52.50;40.25;;;;;;;;5044866;28;51537;-49
2022/02/09 11:08:00;;;;;;;;;46.75;36.75;;;;;;;;5040530;28;51267;-48
2022/02/09 11:10:45;;;;;;;;;55.25;39.25;;;;;;;;5043239;28;51592;-47
2022/02/09 11:13:29;;;;;;;;;48.25;38.50;;;;;;;;5045936;28;51162;-48
2022/02/09 11:16:16;;;;;;;;;47.75;37.25;;;;;;;;5039937;28;51111;-49
2022/02/09 11:19:01;;;;;;;;;53.25;36.25;;;;;;;;5039632;28;51466;-46
2022/02/09 11:21:50;;;;;;;;;49.00;36.00;;;;;;;;5045896;28;51440;-47
2022/02/09 11:24:41;;;;;;;;;43.25;34.50;;;;;;;;5041989;28;51300;-47
2022/02/09 11:27:33;;;;;;;;;47.50;35.75;;;;;;;;5059440;28;51279;-50
2022/02/09 11:33:28;;;;;;;;;46.50;36.25;;;;;;;;5047627;28;51173;-46
2022/02/09 11:42:16;;;;;;;;;48.00;37.25;;;;;;;;5040367;28;51395;-47
2022/02/09 11:45:35;;;;;;;;;46.75;31.75;;;;;;;;5032440;28;51590;-47
2022/02/09 11:49:31;;;;;;;;;49.00;37.00;;;;;;;;5041766;28;51770;-47
2022/02/09 11:55:00;;;;;;;;;43.75;35.00;;;;;;;;5046087;28;51105;-48
2022/02/09 12:09:52;;;;;;;;;45.50;31.75;;;;;;;;5043600;28;51141;-50
2022/02/09 12:12:41;;;;;;;;;48.50;37.75;;;;;;;;5045144;28;51163;-46
2022/02/09 12:16:02;;;;;;;;;50.75;38.00;;;;;;;;5046441;28;52192;-48
2022/02/09 12:18:53;;;;;;;;;52.25;38.25;;;;;;;;5051387;28;51080;-49
2022/02/09 12:22:26;;;;;;;;;42.50;35.25;;;;;;;;5043253;28;51240;-50
2022/02/09 12:24:44;;;;;;;;;46.50;35.50;;;;;;;;5041607;28;51659;-51
2022/02/09 12:27:28;;;;;;;;;46.25;35.25;;;;;;;;5041263;28;51186;-48
2022/02/09 12:30:12;;;;;;;;;49.00;37.25;;;;;;;;5039795;28;51518;-50
2022/02/09 12:32:56;;;;;;;;;52.25;40.25;;;;;;;;5048480;28;51647;-50
2022/02/09 12:35:41;;;;;;;;;43.25;35.75;;;;;;;;5043371;28;51142;-50
2022/02/09 12:38:29;;;;;;;;;50.00;37.50;;;;;;;;5050488;28;51118;-47
2022/02/09 12:41:15;;;;;;;;;44.00;35.75;;;;;;;;5051723;28;51617;-49
2022/02/09 12:44:01;;;;;;;;;48.75;37.00;;;;;;;;5054519;28;51133;-48
2022/02/09 12:46:45;;;;;;;;;51.50;34.75;;;;;;;;5062376;28;51098;-49
2022/02/09 12:49:30;;;;;;;;;52.00;35.00;;;;;;;;5046012;28;51171;-47
2022/02/09 12:52:16;;;;;;;;;47.50;36.75;;;;;;;;5060308;28;51552;-47
2022/02/09 12:55:21;;;;;;;;;27.00;9.75;;;;;;;;5060628;28;51437;-47
2022/02/09 12:58:08;;;;;;;;;55.25;40.00;;;;;;;;5046617;28;51135;-47
2022/02/09 13:00:53;;;;;;;;;25.50;24.75;;;;;;;;5046014;28;51173;-47
2022/02/09 13:03:38;;;;;;;;;48.50;36.75;;;;;;;;5057653;28;51246;-48
2022/02/09 13:06:22;;;;;;;;;49.00;37.50;;;;;;;;5060612;28;51714;-47
2022/02/09 13:09:07;;;;;;;;;47.00;34.50;;;;;;;;5040268;28;51222;-47
2022/02/09 13:11:51;;;;;;;;;43.75;35.25;;;;;;;;5041041;28;51043;-48
2022/02/09 13:14:40;;;;;;;;;44.50;34.00;;;;;;;;5041326;28;51056;-48
2022/02/09 13:17:52;;;;;;;;;44.00;34.75;;;;;;;;5041187;28;51396;-47
2022/02/09 14:12:24;;;;;;;;;43.25;34.25;;;;;;;;5040602;28;51189;-47
2022/02/09 14:31:42;;;;;;;;;56.75;38.25;;;;;;;;5040236;28;51613;-47
2022/02/09 14:56:57;;;;;;;;;49.00;36.50;;;;;;;;5045024;28;51194;-48
2022/02/09 15:05:53;;;;;;;;;47.00;35.75;;;;;;;;5039502;28;51137;-48
2022/02/09 15:08:50;;;;;;;;;39.50;31.75;;;;;;;;5040895;28;51046;-50
2022/02/09 15:12:17;;;;;;;;;55.00;39.50;;;;;;;;5058426;28;51126;-48
2022/02/09 15:18:15;;;;;;;;;46.75;35.00;;;;;;;;5056081;28;51106;-49
2022/02/09 15:23:41;;;;;;;;;47.25;35.75;;;;;;;;5039343;28;51199;-50
2022/02/09 15:26:25;;;;;;;;;48.25;35.50;;;;;;;;5039797;28;52021;-48
2022/02/09 15:29:12;;;;;;;;;45.75;35.50;;;;;;;;5039286;28;51437;-51
2022/02/09 15:32:04;;;;;;;;;46.25;36.00;;;;;;;;5039184;28;51162;-51
2022/02/09 15:34:56;;;;;;;;;48.25;35.00;;;;;;;;5039509;28;50997;-48
2022/02/09 15:37:57;;;;;;;;;47.50;36.00;;;;;;;;5039069;28;51086;-48
2022/02/09 15:56:21;;;;;;;;;44.25;32.50;;;;;;;;5048432;28;51080;-50
2022/02/09 15:59:35;;;;;;;;;47.50;36.00;;;;;;;;5039102;28;51172;-49
2022/02/09 16:05:45;;;;;;;;;48.00;34.00;;;;;;;;5039243;28;52434;-50
2022/02/09 16:11:35;;;;;;;;;46.25;36.75;;;;;;;;5048331;28;51536;-52
2022/02/09 16:26:03;;;;;;;;;49.00;34.00;;;;;;;;5058890;28;51110;-49
2022/02/09 16:46:35;;;;;;;;;48.25;37.25;;;;;;;;5039640;28;50965;-47
2022/02/09 16:49:29;;;;;;;;;42.00;36.00;;;;;;;;5039240;28;51043;-49
2022/02/09 16:52:20;;;;;;;;;47.25;35.75;;;;;;;;5038640;28;51168;-49
2022/02/09 17:19:12;;;;;;;;;49.75;37.50;;;;;;;;5041355;28;51100;-48
2022/02/09 17:21:56;;;;;;;;;49.75;35.00;;;;;;;;5058090;28;51142;-47
2022/02/09 17:24:41;;;;;;;;;49.75;37.00;;;;;;;;5060283;28;51191;-51
2022/02/09 17:27:29;;;;;;;;;52.00;37.25;;;;;;;;5041021;28;51162;-48
2022/02/09 17:35:50;;;;;;;;;35.00;25.50;;;;;;;;5051057;28;51151;-47
2022/02/09 17:54:19;;;;;;;;;48.50;36.50;;;;;;;;5050954;28;51719;-47
2022/02/09 17:57:06;;;;;;;;;52.75;37.50;;;;;;;;5042386;28;51095;-47
2022/02/09 18:00:23;;;;;;;;;48.75;36.50;;;;;;;;5041060;28;51704;-50
2022/02/09 18:03:00;;;;;;;;;50.25;36.25;;;;;;;;5044128;28;51056;-50
2022/02/09 18:05:48;;;;;;;;;48.50;37.00;;;;;;;;5044163;28;51696;-48
2022/02/09 18:08:44;;;;;;;;;51.00;37.75;;;;;;;;5041424;28;51076;-48
2022/02/09 18:44:13;;;;;;;;;52.25;38.25;;;;;;;;5041596;28;51205;-48
2022/02/09 19:17:03;;;;;;;;;46.00;33.50;;;;;;;;5046045;28;51129;-47
2022/02/09 19:32:22;;;;;;;;;50.00;36.75;;;;;;;;5042107;28;51269;-51
2022/02/09 19:41:35;;;;;;;;;31.25;29.75;;;;;;;;5052315;28;51197;-47
2022/02/09 19:44:53;;;;;;;;;45.75;36.00;;;;;;;;5039030;28;51075;-47
2022/02/09 19:47:13;;;;;;;;;55.00;36.25;;;;;;;;5038654;28;51074;-47
2022/02/09 19:53:09;;;;;;;;;55.00;36.50;;;;;;;;5055438;28;51017;-49
2022/02/09 19:55:58;;;;;;;;;47.00;34.75;;;;;;;;5058811;28;51125;-47
2022/02/09 19:58:52;;;;;;;;;46.25;36.00;;;;;;;;5054480;28;51094;-48
2022/02/09 20:01:37;;;;;;;;;51.50;35.50;;;;;;;;5059121;27;51104;-47
2022/02/09 20:04:22;;;;;;;;;51.25;38.00;;;;;;;;5038708;28;51314;-47
2022/02/09 20:07:07;;;;;;;;;51.25;35.25;;;;;;;;5045719;28;51075;-48
2022/02/09 20:09:51;;;;;;;;;45.50;38.25;;;;;;;;5053974;28;51282;-48
2022/02/09 20:12:36;;;;;;;;;41.25;34.75;;;;;;;;5051607;28;51221;-48
2022/02/09 20:15:20;;;;;;;;;55.00;38.75;;;;;;;;5058002;28;51169;-48
2022/02/09 20:18:04;;;;;;;;;51.25;37.50;;;;;;;;5038355;28;51109;-51
2022/02/09 20:20:49;;;;;;;;;50.50;37.50;;;;;;;;5037370;28;51457;-49
2022/02/09 20:23:35;;;;;;;;;42.00;34.75;;;;;;;;5037977;28;51490;-50
2022/02/09 20:26:20;;;;;;;;;50.75;39.50;;;;;;;;5038257;28;51230;-49
2022/02/09 20:29:18;;;;;;;;;48.50;34.00;;;;;;;;5041351;28;52513;-48
2022/02/09 20:35:03;;;;;;;;;48.75;38.75;;;;;;;;5039258;28;51095;-51
2022/02/09 20:37:50;;;;;;;;;48.75;36.25;;;;;;;;5047192;28;51363;-48
2022/02/09 20:40:45;;;;;;;;;48.50;36.75;;;;;;;;5055965;28;51174;-52
2022/02/09 20:43:36;;;;;;;;;54.25;39.25;;;;;;;;5062263;28;51129;-48
2022/02/09 20:46:20;;;;;;;;;49.25;35.75;;;;;;;;5061812;28;51149;-48
2022/02/09 20:49:05;;;;;;;;;49.75;36.25;;;;;;;;5048839;28;51169;-51
2022/02/09 20:51:49;;;;;;;;;54.25;39.50;;;;;;;;5060774;28;51161;-48
2022/02/09 20:54:34;;;;;;;;;50.75;37.50;;;;;;;;5062078;28;51103;-51
2022/02/09 20:57:18;;;;;;;;;49.50;35.25;;;;;;;;5061789;28;51612;-49
2022/02/09 21:00:10;;;;;;;;;52.50;37.50;;;;;;;;5060964;28;51458;-50
2022/02/09 21:06:13;;;;;;;;;53.25;37.00;;;;;;;;5041589;28;51170;-50
2022/02/09 21:09:06;;;;;;;;;48.50;37.50;;;;;;;;5045575;28;51185;-50
2022/02/09 21:12:04;;;;;;;;;48.25;38.25;;;;;;;;5052336;28;51075;-51
2022/02/09 21:56:57;;;;;;;;;51.75;39.00;;;;;;;;5060568;28;51135;-51
2022/02/09 22:57:14;;;;;;;;;55.50;40.00;;;;;;;;5054679;28;51121;-47
2022/02/09 23:00:05;;;;;;;;;50.00;40.00;;;;;;;;5046982;28;51830;-53
2022/02/09 23:02:53;;;;;;;;;49.00;35.75;;;;;;;;5050974;28;51208;-48
2022/02/09 23:05:52;;;;;;;;;52.00;38.50;;;;;;;;5052633;28;51182;-50
2022/02/09 23:09:20;;;;;;;;;52.75;39.50;;;;;;;;5052998;28;51163;-48
2022/02/09 23:55:08;;;;;;;;;49.00;38.75;;;;;;;;5040260;28;51510;-49
